Gales Ferry, Connecticut
Current Conditions -  °F | °C
As of 12:56 AM on Thursday 29 Jan 2015 (Local Time) from KGON Reporting Station
Clear Clear  
Wind Chill:   Ceiling: Unl
Heat Index: 16°   Visibility: 10mi
Dew Point:   Wind: 9mph
Humidity: 49%   Direction: 360°N
Pressure: 30.25"   Gusts: NA
Location:  41.43°N, 72.08°W
Report Text: KGON 290556Z AUTO 36008KT 10SM CLR M09/M18 A3025 RMK AO2 SLP242 T10891178 11050 21089 51017
Loading
Personal Weather Stations






























Interactive Weather Map New forecast layout! Learn more

10-Day Weather Forecast

Advertisements
Track Severe Weather on mobile